createdAt,value
2022-12-18T00:00:10.657Z,88.91
2022-12-18T00:02:39.403Z,88.34
2022-12-18T00:05:10.859Z,87.97
2022-12-18T00:07:39.854Z,88.00
2022-12-18T00:10:09.611Z,87.88
2022-12-18T00:12:38.215Z,88.62
2022-12-18T00:15:07.755Z,88.65
2022-12-18T00:17:36.394Z,87.61
2022-12-18T00:20:05.600Z,88.38
2022-12-18T00:22:35.548Z,87.70
2022-12-18T00:25:04.799Z,87.57
2022-12-18T00:27:33.365Z,88.69
2022-12-18T00:30:02.061Z,88.23
2022-12-18T00:32:30.741Z,88.79
2022-12-18T00:34:59.345Z,88.61
2022-12-18T00:37:27.923Z,88.86
2022-12-18T00:39:57.964Z,88.72
2022-12-18T00:42:44.291Z,88.44
2022-12-18T00:45:13.346Z,88.04
2022-12-18T00:47:42.458Z,89.14
2022-12-18T00:50:11.731Z,88.72
2022-12-18T00:52:41.591Z,88.58
2022-12-18T00:55:11.826Z,88.54
2022-12-18T00:57:40.595Z,88.43
2022-12-18T01:00:11.086Z,87.43
2022-12-18T01:02:39.999Z,88.30
2022-12-18T01:05:09.488Z,87.96
2022-12-18T01:07:38.125Z,87.75
2022-12-18T01:10:07.880Z,87.32
2022-12-18T01:12:37.877Z,87.74
2022-12-18T01:15:08.105Z,87.03
2022-12-18T01:17:37.536Z,87.69
2022-12-18T01:20:07.527Z,87.88
2022-12-18T01:22:36.113Z,87.84
2022-12-18T01:25:06.301Z,88.20
2022-12-18T01:27:36.750Z,88.24
2022-12-18T01:30:06.741Z,88.11
2022-12-18T01:32:35.323Z,87.97
2022-12-18T01:35:04.044Z,87.69
2022-12-18T01:37:32.741Z,87.60
2022-12-18T01:40:01.368Z,87.70
2022-12-18T01:42:30.030Z,87.30
2022-12-18T01:45:06.491Z,87.61
2022-12-18T01:47:38.746Z,87.00
2022-12-18T01:50:11.066Z,87.38
2022-12-18T01:52:40.608Z,87.23
2022-12-18T01:55:10.698Z,87.38
2022-12-18T01:57:40.040Z,87.07
2022-12-18T02:00:12.536Z,86.59
2022-12-18T02:02:41.694Z,86.80
2022-12-18T02:05:11.318Z,86.89
2022-12-18T02:07:45.911Z,87.52
2022-12-18T02:10:18.495Z,87.31
2022-12-18T02:12:50.932Z,87.09
2022-12-18T02:15:28.553Z,87.12
2022-12-18T02:18:00.091Z,87.72
2022-12-18T02:20:34.311Z,87.94
2022-12-18T02:23:09.427Z,87.84
2022-12-18T02:25:53.979Z,87.45
2022-12-18T02:28:24.970Z,87.65
2022-12-18T02:30:55.786Z,86.56
2022-12-18T02:33:24.920Z,86.95
2022-12-18T02:35:54.560Z,87.35
2022-12-18T02:38:23.235Z,86.39
2022-12-18T02:40:53.831Z,86.74
2022-12-18T02:43:22.800Z,85.96
2022-12-18T02:45:54.514Z,85.72
2022-12-18T02:48:30.279Z,86.07
2022-12-18T02:51:05.138Z,85.87
2022-12-18T02:53:39.318Z,86.25
2022-12-18T02:56:13.070Z,85.32
2022-12-18T02:58:47.471Z,85.49
2022-12-18T03:01:19.589Z,85.27
2022-12-18T03:03:51.067Z,86.03
2022-12-18T03:06:24.931Z,84.79
2022-12-18T03:08:56.508Z,85.72
2022-12-18T03:11:43.683Z,85.39
2022-12-18T03:14:13.334Z,85.44
2022-12-18T03:16:42.388Z,85.61
2022-12-18T03:19:13.920Z,84.87
2022-12-18T03:21:44.759Z,85.07
2022-12-18T03:24:13.736Z,85.43
2022-12-18T03:26:47.068Z,85.68
2022-12-18T03:29:19.685Z,85.51
2022-12-18T03:31:51.575Z,85.44
2022-12-18T03:34:25.142Z,86.15
2022-12-18T03:36:54.065Z,85.46
2022-12-18T03:39:22.719Z,85.03
2022-12-18T03:41:54.906Z,84.66
2022-12-18T03:44:30.220Z,84.48
2022-12-18T03:47:04.154Z,84.25
2022-12-18T03:49:37.355Z,83.80
2022-12-18T03:52:08.428Z,83.45
2022-12-18T03:54:37.814Z,82.30
2022-12-18T03:57:11.949Z,82.75
2022-12-18T03:59:41.391Z,82.17
2022-12-18T04:02:10.315Z,82.43
2022-12-18T04:04:40.607Z,83.02
2022-12-18T04:07:09.607Z,83.26
2022-12-18T04:09:38.916Z,83.71
2022-12-18T04:12:09.098Z,83.41
2022-12-18T04:14:37.725Z,83.93
2022-12-18T04:17:06.334Z,83.72
2022-12-18T04:19:34.928Z,83.93
2022-12-18T04:22:03.556Z,83.33
2022-12-18T04:24:32.210Z,82.61
2022-12-18T04:27:00.763Z,82.56
2022-12-18T04:29:30.747Z,83.15
2022-12-18T04:31:59.363Z,83.52
2022-12-18T04:34:28.444Z,82.74
2022-12-18T04:36:57.014Z,81.58
2022-12-18T04:39:26.202Z,82.02
2022-12-18T04:41:55.241Z,80.13
2022-12-18T04:44:23.840Z,79.77
2022-12-18T04:46:53.870Z,79.70
2022-12-18T04:49:23.097Z,80.44
2022-12-18T04:51:51.724Z,80.54
2022-12-18T04:54:21.784Z,79.59
2022-12-18T04:56:50.334Z,80.15
2022-12-18T04:59:18.916Z,79.83
2022-12-18T05:01:47.825Z,79.16
2022-12-18T05:04:17.848Z,79.02
2022-12-18T05:06:46.674Z,78.61
2022-12-18T05:09:15.868Z,78.92
2022-12-18T05:11:45.093Z,78.38
2022-12-18T05:14:14.943Z,79.23
2022-12-18T05:16:43.587Z,79.27
2022-12-18T05:19:12.736Z,79.69
2022-12-18T05:21:43.182Z,79.01
2022-12-18T05:24:12.538Z,78.72
2022-12-18T05:26:41.295Z,78.72
2022-12-18T05:29:13.138Z,78.73
2022-12-18T05:31:42.686Z,78.43
2022-12-18T05:34:12.111Z,78.96
2022-12-18T05:36:43.073Z,78.82
2022-12-18T05:39:13.126Z,79.65
2022-12-18T05:41:41.775Z,79.45
2022-12-18T05:44:11.510Z,79.39
2022-12-18T05:46:40.146Z,79.95
2022-12-18T05:49:10.163Z,80.21
2022-12-18T05:51:39.063Z,79.24
2022-12-18T05:54:09.274Z,79.22
2022-12-18T05:56:37.881Z,78.87
2022-12-18T05:59:06.471Z,78.04
2022-12-18T06:01:35.230Z,78.30
2022-12-18T06:04:04.034Z,78.51
2022-12-18T06:06:34.109Z,77.95
2022-12-18T06:09:09.009Z,78.69
2022-12-18T06:11:39.196Z,78.18
2022-12-18T06:14:08.205Z,79.20
2022-12-18T06:16:36.826Z,78.47
2022-12-18T06:19:07.455Z,78.29
2022-12-18T06:21:36.152Z,79.30
2022-12-18T06:24:05.220Z,79.11
2022-12-18T06:26:33.839Z,79.01
2022-12-18T06:29:03.841Z,79.21
2022-12-18T06:31:32.623Z,79.20
2022-12-18T06:34:01.299Z,78.83
2022-12-18T06:36:30.241Z,79.09
2022-12-18T06:38:59.091Z,78.96
2022-12-18T06:41:27.748Z,79.07
2022-12-18T06:43:59.692Z,79.13
2022-12-18T06:46:30.127Z,78.95
2022-12-18T06:48:58.774Z,78.95
2022-12-18T06:51:27.458Z,78.56
2022-12-18T06:53:56.022Z,79.05
2022-12-18T06:56:24.638Z,78.87
2022-12-18T06:58:53.314Z,78.61
2022-12-18T07:01:21.965Z,79.08
2022-12-18T07:03:55.743Z,78.25
2022-12-18T07:06:26.602Z,78.01
2022-12-18T07:08:56.005Z,78.46
2022-12-18T07:11:25.257Z,78.99
2022-12-18T07:13:54.444Z,79.78
2022-12-18T07:16:25.666Z,79.63
2022-12-18T07:18:56.642Z,78.43
2022-12-18T07:21:26.089Z,78.48
2022-12-18T07:23:54.817Z,79.66
2022-12-18T07:26:24.214Z,79.45
2022-12-18T07:28:56.936Z,79.12
2022-12-18T07:31:26.550Z,78.74
2022-12-18T07:33:56.831Z,79.20
2022-12-18T07:36:25.653Z,78.24
2022-12-18T07:38:54.468Z,77.13
2022-12-18T07:41:23.143Z,78.01
2022-12-18T07:43:51.776Z,78.08
2022-12-18T07:46:20.918Z,78.43
2022-12-18T07:48:50.443Z,78.64
2022-12-18T07:51:20.704Z,77.43
2022-12-18T07:53:52.307Z,78.46
2022-12-18T07:56:27.723Z,78.44
2022-12-18T07:58:58.127Z,78.61
2022-12-18T08:01:27.011Z,78.89
2022-12-18T08:03:55.890Z,78.08
2022-12-18T08:06:25.826Z,79.24
2022-12-18T08:08:54.980Z,79.51
2022-12-18T08:11:24.585Z,79.17
2022-12-18T08:13:53.614Z,78.41
2022-12-18T08:16:22.958Z,79.48
2022-12-18T08:18:53.289Z,78.61
2022-12-18T08:21:25.065Z,78.08
2022-12-18T08:23:56.568Z,78.32
2022-12-18T08:26:26.508Z,77.73
2022-12-18T08:28:55.757Z,77.69
2022-12-18T08:31:24.957Z,77.52
2022-12-18T08:33:54.937Z,77.32
2022-12-18T08:36:24.807Z,77.98
2022-12-18T08:38:55.759Z,78.00
2022-12-18T08:41:24.363Z,77.84
2022-12-18T08:44:10.368Z,77.96
2022-12-18T08:46:41.178Z,78.40
2022-12-18T08:49:10.836Z,78.18
2022-12-18T08:51:39.569Z,78.64
2022-12-18T08:54:09.683Z,78.85
2022-12-18T08:56:38.314Z,79.38
2022-12-18T08:59:07.498Z,78.44
2022-12-18T09:01:36.317Z,79.18
2022-12-18T09:04:05.369Z,78.47
2022-12-18T09:06:36.295Z,78.71
2022-12-18T09:09:06.487Z,78.84
2022-12-18T09:11:36.463Z,78.44
2022-12-18T09:14:05.412Z,79.63
2022-12-18T09:16:35.868Z,79.00
2022-12-18T09:19:05.677Z,78.18
2022-12-18T09:21:41.207Z,78.73
2022-12-18T09:24:14.356Z,78.74
2022-12-18T09:26:47.264Z,77.79
2022-12-18T09:29:16.403Z,77.93
2022-12-18T09:31:48.348Z,80.04
2022-12-18T09:34:17.520Z,78.84
2022-12-18T09:36:46.158Z,78.42
2022-12-18T09:39:16.125Z,78.86
2022-12-18T09:41:51.830Z,78.22
2022-12-18T09:44:27.426Z,78.82
2022-12-18T09:47:04.430Z,77.98
2022-12-18T09:49:36.864Z,78.83
2022-12-18T09:52:11.133Z,79.09
2022-12-18T09:54:41.666Z,78.70
2022-12-18T09:57:16.059Z,78.47
2022-12-18T09:59:46.965Z,78.70
2022-12-18T10:02:22.237Z,78.64
2022-12-18T10:05:03.848Z,79.32
2022-12-18T10:07:43.941Z,79.79
2022-12-18T10:10:23.893Z,79.77
2022-12-18T10:13:04.551Z,80.28
2022-12-18T10:15:38.635Z,80.41
2022-12-18T10:18:21.679Z,79.79
2022-12-18T10:20:52.177Z,80.00
2022-12-18T10:23:24.419Z,80.10
2022-12-18T10:26:05.882Z,79.71
2022-12-18T10:28:38.715Z,80.79
2022-12-18T10:31:07.918Z,80.30
2022-12-18T10:33:36.765Z,80.48
2022-12-18T10:36:07.254Z,80.59
2022-12-18T10:38:36.078Z,80.27
2022-12-18T10:41:06.614Z,80.36
2022-12-18T10:43:38.389Z,79.93
2022-12-18T10:46:25.242Z,80.25
2022-12-18T10:49:22.223Z,80.16
2022-12-18T10:52:08.262Z,79.36
2022-12-18T10:54:37.403Z,78.92
2022-12-18T10:57:33.935Z,79.11
2022-12-18T11:00:23.728Z,78.88
2022-12-18T11:02:52.861Z,78.84
2022-12-18T11:05:29.867Z,78.98
2022-12-18T11:07:59.789Z,78.48
2022-12-18T11:10:32.280Z,78.54
2022-12-18T11:13:12.678Z,78.28
2022-12-18T11:15:43.376Z,78.50
2022-12-18T11:18:19.107Z,78.19
2022-12-18T11:20:58.198Z,77.62
2022-12-18T11:23:27.791Z,77.54
2022-12-18T11:25:58.913Z,77.21
2022-12-18T11:28:31.142Z,77.00
2022-12-18T11:31:19.193Z,76.79
2022-12-18T11:36:52.566Z,76.97
2022-12-18T11:39:24.892Z,76.43
2022-12-18T11:42:12.352Z,76.78
2022-12-18T11:44:45.356Z,76.11
2022-12-18T11:47:24.171Z,76.99
2022-12-18T11:49:53.394Z,77.09
2022-12-18T11:52:23.727Z,76.79
2022-12-18T11:54:53.740Z,76.71
2022-12-18T11:57:35.004Z,76.75
2022-12-18T12:00:09.578Z,76.33
2022-12-18T12:02:59.911Z,76.43
2022-12-18T12:05:38.747Z,75.97
2022-12-18T12:08:15.300Z,75.86
2022-12-18T12:10:51.536Z,75.82
2022-12-18T12:13:32.195Z,75.52
2022-12-18T12:16:08.634Z,75.01
2022-12-18T12:18:49.178Z,75.18
2022-12-18T12:21:22.572Z,75.13
2022-12-18T12:23:56.120Z,75.55
2022-12-18T12:26:29.611Z,75.73
2022-12-18T12:29:04.720Z,76.21
2022-12-18T12:31:49.554Z,76.60
2022-12-18T12:34:22.086Z,76.21
2022-12-18T12:37:02.474Z,76.53
2022-12-18T12:39:33.485Z,77.30
2022-12-18T12:42:20.670Z,77.28
2022-12-18T12:44:56.277Z,77.35
2022-12-18T12:47:28.115Z,76.50
2022-12-18T12:49:58.765Z,76.64
2022-12-18T12:52:33.179Z,76.24
2022-12-18T12:55:02.542Z,76.49
2022-12-18T12:57:37.099Z,76.78
2022-12-18T13:00:11.592Z,77.45
2022-12-18T13:02:44.800Z,76.66
2022-12-18T13:05:20.007Z,76.70
2022-12-18T13:07:53.409Z,76.46
2022-12-18T13:10:28.686Z,76.54
2022-12-18T13:12:57.920Z,77.21
2022-12-18T13:15:31.512Z,76.69
2022-12-18T13:18:07.343Z,76.75
2022-12-18T13:20:38.808Z,75.46
2022-12-18T13:23:28.945Z,76.30
2022-12-18T13:25:58.695Z,75.84
2022-12-18T13:29:00.181Z,76.42
2022-12-18T13:32:10.782Z,75.63
2022-12-18T13:34:39.668Z,76.45
2022-12-18T13:37:47.245Z,76.24
2022-12-18T13:40:56.107Z,77.02
2022-12-18T13:43:28.591Z,76.40
2022-12-18T13:46:06.626Z,76.47
2022-12-18T13:48:36.831Z,76.64
2022-12-18T13:51:06.787Z,77.32
2022-12-18T13:53:40.834Z,77.32
2022-12-18T13:56:10.063Z,76.80
2022-12-18T13:58:39.117Z,77.02
2022-12-18T14:01:23.807Z,77.14
2022-12-18T14:03:52.703Z,77.38
2022-12-18T14:06:22.541Z,77.52
2022-12-18T14:08:53.439Z,77.29
2022-12-18T14:11:25.367Z,77.72
2022-12-18T14:13:55.459Z,78.34
2022-12-18T14:16:24.403Z,77.96
2022-12-18T14:18:57.573Z,77.84
2022-12-18T14:21:33.439Z,78.40
2022-12-18T14:24:08.718Z,78.43
2022-12-18T14:26:37.345Z,78.38
2022-12-18T14:29:21.580Z,78.26
2022-12-18T14:32:17.316Z,79.46
2022-12-18T14:34:48.115Z,79.48
2022-12-18T14:37:18.293Z,79.52
2022-12-18T14:39:59.570Z,80.47
2022-12-18T14:42:29.115Z,80.04
2022-12-18T14:45:41.533Z,80.47
2022-12-18T14:48:16.500Z,80.13
2022-12-18T14:51:00.762Z,81.12
2022-12-18T14:53:39.209Z,80.29
2022-12-18T14:56:19.229Z,81.25
2022-12-18T14:58:49.746Z,81.44
2022-12-18T15:01:23.833Z,81.58
2022-12-18T15:03:53.321Z,81.55
2022-12-18T15:06:29.127Z,81.76
2022-12-18T15:08:58.104Z,81.39
2022-12-18T15:11:35.697Z,81.73
2022-12-18T15:14:40.067Z,81.87
2022-12-18T15:17:17.784Z,82.11
2022-12-18T15:19:47.502Z,82.14
2022-12-18T15:22:25.274Z,82.00
2022-12-18T15:24:54.084Z,82.15
2022-12-18T15:27:27.516Z,82.55
2022-12-18T15:30:18.078Z,83.06
2022-12-18T15:32:46.920Z,83.21
2022-12-18T15:35:17.815Z,82.94
2022-12-18T15:37:46.710Z,82.50
2022-12-18T15:40:16.100Z,83.11
2022-12-18T15:43:05.835Z,82.65
2022-12-18T15:45:35.046Z,83.44
2022-12-18T15:48:21.690Z,83.01
2022-12-18T15:50:59.419Z,83.01
2022-12-18T15:53:31.754Z,83.34
2022-12-18T15:56:39.764Z,82.75
2022-12-18T16:02:17.905Z,83.26
2022-12-18T16:04:47.412Z,83.04
2022-12-18T16:07:18.859Z,83.73
2022-12-18T16:09:51.628Z,83.42
2022-12-18T16:12:23.269Z,83.37
2022-12-18T16:14:53.277Z,83.87
2022-12-18T16:17:22.445Z,83.22
2022-12-18T16:19:51.287Z,83.33
2022-12-18T16:22:23.272Z,83.30
2022-12-18T16:24:52.910Z,83.20
2022-12-18T16:27:22.409Z,83.33
2022-12-18T16:29:52.726Z,83.93
2022-12-18T16:32:23.346Z,83.49
2022-12-18T16:34:52.307Z,83.43
2022-12-18T16:37:20.910Z,83.53
2022-12-18T16:39:49.630Z,84.26
2022-12-18T16:42:20.178Z,84.30
2022-12-18T16:44:51.278Z,84.04
2022-12-18T16:47:21.192Z,83.64
2022-12-18T16:49:53.202Z,83.92
2022-12-18T16:52:22.315Z,84.01
2022-12-18T16:54:50.935Z,83.61
2022-12-18T16:57:21.529Z,83.52
2022-12-18T16:59:54.163Z,83.96
2022-12-18T17:02:25.666Z,83.87
2022-12-18T17:04:56.780Z,83.96
2022-12-18T17:07:26.194Z,83.28
2022-12-18T17:09:55.195Z,83.30
2022-12-18T17:12:24.289Z,84.15
2022-12-18T17:14:52.894Z,83.58
2022-12-18T17:17:23.084Z,83.99
2022-12-18T17:19:53.877Z,83.24
2022-12-18T17:22:24.093Z,84.24
2022-12-18T17:24:52.722Z,84.13
2022-12-18T17:27:21.337Z,83.26
2022-12-18T17:29:49.991Z,83.32
2022-12-18T17:32:25.686Z,83.42
2022-12-18T17:34:55.679Z,82.78
2022-12-18T17:37:29.979Z,83.05
2022-12-18T17:39:58.693Z,83.22
2022-12-18T17:42:27.438Z,82.87
2022-12-18T17:45:00.152Z,82.37
2022-12-18T17:47:30.039Z,82.69
2022-12-18T17:50:00.116Z,82.40
2022-12-18T17:52:28.969Z,82.62
2022-12-18T17:54:57.676Z,83.17
2022-12-18T17:57:26.328Z,83.32
2022-12-18T17:59:55.005Z,83.24
2022-12-18T18:02:24.308Z,83.79
2022-12-18T18:04:53.465Z,83.68
2022-12-18T18:07:31.629Z,83.72
2022-12-18T18:10:00.360Z,82.71
2022-12-18T18:12:51.038Z,82.97
2022-12-18T18:15:19.784Z,83.59
2022-12-18T18:17:48.383Z,83.18
2022-12-18T18:20:22.257Z,82.32
2022-12-18T18:22:52.906Z,82.15
2022-12-18T18:25:21.648Z,81.67
2022-12-18T18:27:50.744Z,82.22
2022-12-18T18:30:19.717Z,82.38
2022-12-18T18:32:48.775Z,82.79
2022-12-18T18:35:45.063Z,81.75
2022-12-18T18:38:08.457Z,81.88
2022-12-18T18:40:37.194Z,82.72
2022-12-18T18:43:05.844Z,81.73
2022-12-18T18:45:35.353Z,81.75
2022-12-18T18:48:04.015Z,82.01
2022-12-18T18:50:32.621Z,81.99
2022-12-18T18:53:01.207Z,81.47
2022-12-18T18:55:34.157Z,82.05
2022-12-18T18:58:02.769Z,81.87
2022-12-18T19:01:05.860Z,81.95
2022-12-18T19:03:34.684Z,81.39
2022-12-18T19:06:03.283Z,81.97
2022-12-18T19:08:34.232Z,82.17
2022-12-18T19:11:06.034Z,82.18
2022-12-18T19:13:34.104Z,82.23
2022-12-18T19:16:05.467Z,81.09
2022-12-18T19:18:34.532Z,81.42
2022-12-18T19:21:05.180Z,81.42
2022-12-18T19:23:34.641Z,81.30
2022-12-18T19:28:55.371Z,80.86
2022-12-18T19:31:27.047Z,80.39
2022-12-18T19:33:58.265Z,80.23
2022-12-18T19:36:28.160Z,80.33
2022-12-18T19:38:58.454Z,80.80
2022-12-18T19:41:31.125Z,81.42
2022-12-18T19:44:01.609Z,81.02
2022-12-18T19:46:38.296Z,81.11
2022-12-18T19:49:11.168Z,81.66
2022-12-18T19:51:40.968Z,81.30
2022-12-18T19:54:13.351Z,80.58
2022-12-18T19:56:46.717Z,81.17
2022-12-18T19:59:16.918Z,80.54
2022-12-18T20:01:45.665Z,81.11
2022-12-18T20:04:14.383Z,80.92
2022-12-18T20:06:53.405Z,81.34
2022-12-18T20:09:29.195Z,81.38
2022-12-18T20:11:59.850Z,81.06
2022-12-18T20:14:28.601Z,81.49
2022-12-18T20:16:57.728Z,81.21
2022-12-18T20:19:29.636Z,81.28
2022-12-18T20:21:58.893Z,80.69
2022-12-18T20:24:27.880Z,81.80
2022-12-18T20:26:56.555Z,81.56
2022-12-18T20:29:26.713Z,81.76
2022-12-18T20:31:55.287Z,81.26
2022-12-18T20:34:28.123Z,81.33
2022-12-18T20:36:57.079Z,82.36
2022-12-18T20:39:27.482Z,82.14
2022-12-18T20:41:57.117Z,83.01
2022-12-18T20:44:27.184Z,81.94
2022-12-18T20:46:57.360Z,82.61
2022-12-18T20:49:27.600Z,83.17
2022-12-18T20:51:58.262Z,83.33
2022-12-18T20:54:28.051Z,83.74
2022-12-18T20:56:57.262Z,82.95
2022-12-18T20:59:27.367Z,84.35
2022-12-18T21:01:56.309Z,83.90
2022-12-18T21:04:25.386Z,83.87
2022-12-18T21:06:55.716Z,82.41
2022-12-18T21:09:37.184Z,82.39
2022-12-18T21:12:27.504Z,82.91
2022-12-18T21:14:59.417Z,82.77
2022-12-18T21:17:28.600Z,82.77
2022-12-18T21:19:58.426Z,83.22
2022-12-18T21:22:27.411Z,83.46
2022-12-18T21:24:55.999Z,84.17
2022-12-18T21:27:24.660Z,84.16
2022-12-18T21:29:53.447Z,84.28
2022-12-18T21:32:24.664Z,83.03
2022-12-18T21:34:55.736Z,82.78
2022-12-18T21:37:24.356Z,83.21
2022-12-18T21:39:53.024Z,83.10
2022-12-18T21:42:39.466Z,82.84
2022-12-18T21:45:09.024Z,82.59
2022-12-18T21:47:39.026Z,82.32
2022-12-18T21:50:08.107Z,82.83
2022-12-18T21:52:36.754Z,82.82
2022-12-18T21:55:09.331Z,82.10
2022-12-18T21:57:38.888Z,82.19
2022-12-18T22:00:12.499Z,82.24
2022-12-18T22:03:17.992Z,82.09
2022-12-18T22:05:38.629Z,82.20
2022-12-18T22:08:15.547Z,82.48
2022-12-18T22:10:46.345Z,82.89
2022-12-18T22:13:19.445Z,81.96
2022-12-18T22:15:48.139Z,81.62
2022-12-18T22:18:18.073Z,82.78
2022-12-18T22:20:46.710Z,82.85
2022-12-18T22:23:15.352Z,83.29
2022-12-18T22:25:51.796Z,83.15
2022-12-18T22:28:38.053Z,83.08
2022-12-18T22:31:06.810Z,83.44
2022-12-18T22:33:36.772Z,83.63
2022-12-18T22:36:06.638Z,83.93
2022-12-18T22:38:35.311Z,83.97
2022-12-18T22:41:03.931Z,83.95
2022-12-18T22:43:33.394Z,83.64
2022-12-18T22:46:04.618Z,83.35
2022-12-18T22:48:33.276Z,84.14
2022-12-18T22:51:03.480Z,83.50
2022-12-18T22:53:32.155Z,84.19
2022-12-18T22:56:03.923Z,83.05
2022-12-18T22:58:32.517Z,83.81
2022-12-18T23:01:01.133Z,83.33
2022-12-18T23:03:29.893Z,84.22
2022-12-18T23:06:05.353Z,84.00
2022-12-18T23:08:34.019Z,84.24
2022-12-18T23:11:03.206Z,83.40
2022-12-18T23:13:31.844Z,83.47
2022-12-18T23:16:00.775Z,83.79
2022-12-18T23:18:29.443Z,84.58
2022-12-18T23:20:58.083Z,84.60
2022-12-18T23:23:29.657Z,84.43
2022-12-18T23:26:02.342Z,83.57
2022-12-18T23:28:32.702Z,83.94
2022-12-18T23:31:06.704Z,83.97
2022-12-18T23:33:35.394Z,83.31
2022-12-18T23:36:05.158Z,83.73
2022-12-18T23:38:36.008Z,84.49
2022-12-18T23:41:08.045Z,84.13
2022-12-18T23:43:36.794Z,85.45
2022-12-18T23:46:11.296Z,85.52
2022-12-18T23:48:40.396Z,85.10
2022-12-18T23:51:10.151Z,85.05
2022-12-18T23:53:40.185Z,85.00
2022-12-18T23:56:10.162Z,85.28
2022-12-18T23:58:39.519Z,84.53
